NFSM7: N Fork Spring River nr Purcell, MO

Data processed at Thu May 23 2019 23:50


All information presented herein is the property of the government of the United States of America and may be revised or deleted at any time without prior notice.
Dissemination of this information without the expressed written consent of the Public Affairs Office, Tulsa District U.S. Army Corps of Engineers is strictly prohibited.
These data are gathered electronically and, as presented, have not undergone any form of quality control. These data are not guaranteed to be valid or correct.
Go to home page.
Go to station list.
Go to home page.

Downstream station:


Previous Day
Next Day
Current Day
    
SHEF ID:       NSFM7     N Fork Spring River nr Purcell,
STATION TYPE:  

                STAGE  RIV-FLOW
                   ft       cfs
              Ccp-Rev   Ccp-Rev
(US/Central)
05/23 00:00     25.83     15750
05/23 01:00     25.72     15608
05/23 02:00     25.65     15518
05/23 03:00     25.51     15338
05/23 04:00     25.43     15236
05/23 05:00     25.37     15160
05/23 06:00     25.45     15262
05/23 07:00     25.63     15492
05/23 08:00     25.86     15788
05/23 09:00     26.07     16062
05/23 10:00     26.27     16333
05/23 11:00     26.48     16643
05/23 12:00     26.68     16942
05/23 13:00     26.83     17168
05/23 14:00     27.02     17456
05/23 15:00     27.14     17639
05/23 16:00     27.32     17917
05/23 17:00     27.43     18098
05/23 18:00     27.49     18224
05/23 19:00     27.66     18585
05/23 20:00     27.82     18929
05/23 21:00     28.09     19519
05/23 22:00     28.28     19941
05/23 23:00     28.51     20507